Time;durP1;ratioP1;P1;durP2;ratioP2;P2;SDS_P1;SDS_P2;PMS_P1;PMS_P2;Temp;Humidity;BMP_temperature;BMP_pressure;BME280_temperature;BME280_humidity;BME280_pressure;Samples;Min_cycle;Max_cycle;Signal;HPM_P1;HPM_P2
2021/08/01 00:00:58;;;;;;;;;;;;;;;20.50;91.46;98353.97;4996142;28;19914;-60
2021/08/01 00:03:24;;;;;;;;;;;;;;;20.59;85.07;98355.84;4994036;28;20326;-60
2021/08/01 00:05:49;;;;;;;;;;;;;;;20.95;83.64;98343.25;4991009;28;19925;-61
2021/08/01 00:08:14;;;;;;;;;;;;;;;20.85;80.52;98344.03;4993594;28;19914;-63
2021/08/01 00:10:40;;;;;;;;;;;;;;;20.28;91.03;98345.28;4995371;28;20418;-60
2021/08/01 00:13:05;;;;;;;;;;;;;;;20.43;92.98;98348.41;5005121;28;19921;-60
2021/08/01 00:15:30;;;;;;;;;;;;;;;20.66;76.54;98341.28;5012575;28;19914;-60
2021/08/01 00:17:56;;;;;;;;;;;;;;;20.46;91.44;98351.63;5011906;28;20613;-62
2021/08/01 00:20:21;;;;;;;;;;;;;;;20.77;81.27;98348.25;4994894;28;20287;-60
2021/08/01 00:22:46;;;;;;;;;;;;;;;20.69;84.36;98343.66;5012654;28;19925;-60
2021/08/01 00:25:12;;;;;;;;;;;;;;;20.79;83.35;98339.31;5001071;28;19964;-60
2021/08/01 00:27:37;;;;;;;;;;;;;;;20.84;81.86;98344.13;5013595;28;19917;-62
2021/08/01 00:30:03;;;;;;;;;;;;;;;20.71;87.64;98341.75;5005017;28;19917;-61
2021/08/01 00:32:28;;;;;;;;;;;;;;;20.68;74.47;98352.47;5016777;28;19913;-61
2021/08/01 00:34:53;;;;;;;;;;;;;;;20.62;83.93;98347.75;5014122;28;19964;-61
2021/08/01 00:37:19;;;;;;;;;;;;;;;20.48;86.56;98336.63;5011851;28;19960;-61
2021/08/01 00:39:44;;;;;;;;;;;;;;;20.53;82.63;98338.03;5013485;28;19924;-61
2021/08/01 00:42:10;;;;;;;;;;;;;;;20.36;88.98;98337.63;5012162;28;19924;-61
2021/08/01 00:44:35;;;;;;;;;;;;;;;20.36;90.52;98336.81;5012304;28;20569;-60
2021/08/01 00:47:01;;;;;;;;;;;;;;;20.64;88.52;98333.59;5016615;28;19925;-60
2021/08/01 00:49:26;;;;;;;;;;;;;;;20.53;81.07;98338.03;5013485;28;19921;-61
2021/08/01 00:51:51;;;;;;;;;;;;;;;20.29;84.57;98341.72;5013633;28;19917;-61
2021/08/01 00:54:17;;;;;;;;;;;;;;;20.34;83.18;98338.72;5012109;28;19918;-60
2021/08/01 00:56:42;;;;;;;;;;;;;;;20.34;86.76;98334.31;5011363;28;19918;-61
2021/08/01 00:59:07;;;;;;;;;;;;;;;20.46;81.07;98328.06;5012241;28;19956;-60
2021/08/01 01:01:35;;;;;;;;;;;;;;;20.25;82.48;98325.47;5008140;28;19917;-61
2021/08/01 01:04:12;;;;;;;;;;;;;;;20.19;81.89;98325.13;4995333;28;19918;-61
2021/08/01 01:06:56;;;;;;;;;;;;;;;20.28;84.30;98324.38;5012040;28;19927;-61
2021/08/01 01:09:40;;;;;;;;;;;;;;;20.30;86.83;98322.47;5009911;28;20003;-61
2021/08/01 01:12:09;;;;;;;;;;;;;;;20.46;83.37;98316.78;4993826;28;19929;-60
2021/08/01 01:14:36;;;;;;;;;;;;;;;20.44;79.45;98308.25;5013873;28;20604;-60
2021/08/01 01:17:02;;;;;;;;;;;;;;;20.40;75.17;98318.13;5010978;28;19920;-61
2021/08/01 01:19:48;;;;;;;;;;;;;;;20.22;77.85;98319.66;5010211;28;19917;-60
2021/08/01 01:22:33;;;;;;;;;;;;;;;20.43;82.99;98322.25;4997630;28;19921;-61
2021/08/01 01:24:58;;;;;;;;;;;;;;;20.03;89.83;98323.78;4971152;28;19917;-61
2021/08/01 01:27:31;;;;;;;;;;;;;;;20.15;87.67;98318.50;4993526;28;19924;-60
2021/08/01 01:30:00;;;;;;;;;;;;;;;20.17;85.13;98322.63;4992895;28;20385;-61
2021/08/01 01:32:27;;;;;;;;;;;;;;;20.30;85.50;98314.63;4980552;28;19914;-61
2021/08/01 01:34:58;;;;;;;;;;;;;;;20.24;83.53;98315.94;5007996;28;19924;-61
2021/08/01 01:37:23;;;;;;;;;;;;;;;20.22;87.78;98320.47;5010247;28;20019;-61
2021/08/01 01:39:49;;;;;;;;;;;;;;;20.05;78.90;98308.81;5013065;28;20064;-61
2021/08/01 01:42:15;;;;;;;;;;;;;;;20.09;82.49;98309.34;4998476;28;20383;-61
2021/08/01 01:44:42;;;;;;;;;;;;;;;20.17;88.33;98314.81;4995203;28;19926;-60
2021/08/01 01:47:07;;;;;;;;;;;;;;;20.14;80.18;98316.81;5012856;28;20195;-61
2021/08/01 01:49:32;;;;;;;;;;;;;;;20.02;79.13;98316.88;5010962;28;20405;-61
2021/08/01 01:51:58;;;;;;;;;;;;;;;19.95;79.84;98318.34;5009989;28;19913;-61
2021/08/01 01:54:23;;;;;;;;;;;;;;;19.48;88.83;98315.13;5008428;28;19917;-60
2021/08/01 01:56:48;;;;;;;;;;;;;;;19.62;77.53;98320.09;5010558;28;19936;-60
2021/08/01 01:59:14;;;;;;;;;;;;;;;19.85;90.02;98312.22;4996933;28;19913;-61
2021/08/01 02:01:39;;;;;;;;;;;;;;;19.10;98.94;98303.31;4992921;28;19948;-61
2021/08/01 02:04:05;;;;;;;;;;;;;;;18.61;100.00;98283.63;4992467;28;19914;-60
2021/08/01 02:06:30;;;;;;;;;;;;;;;18.52;98.00;98284.28;5013685;28;20003;-60
2021/08/01 02:09:07;;;;;;;;;;;;;;;19.18;83.74;98289.66;5014242;28;19914;-60
2021/08/01 02:11:34;;;;;;;;;;;;;;;19.38;93.96;98294.13;5007581;28;19940;-61
2021/08/01 02:14:01;;;;;;;;;;;;;;;19.74;88.01;98291.34;4992468;28;19987;-60
2021/08/01 02:16:30;;;;;;;;;;;;;;;19.71;86.18;98294.22;4992377;28;20148;-61
2021/08/01 02:18:56;;;;;;;;;;;;;;;19.62;92.78;98293.13;5008078;28;19913;-60
2021/08/01 02:21:21;;;;;;;;;;;;;;;19.61;86.99;98294.94;5010913;28;19967;-61
2021/08/01 02:23:47;;;;;;;;;;;;;;;19.21;97.13;98286.81;5012780;28;19921;-60
2021/08/01 02:26:13;;;;;;;;;;;;;;;19.29;96.55;98289.63;4992623;28;19926;-61
2021/08/01 02:28:38;;;;;;;;;;;;;;;19.53;82.40;98286.03;4995225;28;20379;-60
2021/08/01 02:31:04;;;;;;;;;;;;;;;19.56;87.75;98297.06;4992461;28;19943;-61
2021/08/01 02:33:29;;;;;;;;;;;;;;;19.59;91.60;98301.19;5012764;28;19914;-60
2021/08/01 02:36:01;;;;;;;;;;;;;;;19.61;90.50;98296.69;4993858;28;20267;-60
2021/08/01 02:38:26;;;;;;;;;;;;;;;19.16;96.23;98300.25;4976367;28;19920;-59
2021/08/01 02:40:52;;;;;;;;;;;;;;;18.90;95.82;98301.44;4999203;28;19917;-60
2021/08/01 02:43:17;;;;;;;;;;;;;;;19.10;92.11;98295.50;5010107;28;19913;-61
2021/08/01 02:45:43;;;;;;;;;;;;;;;19.39;86.87;98292.38;4996602;28;19983;-60
2021/08/01 02:48:10;;;;;;;;;;;;;;;19.19;89.18;98300.00;4996215;28;20075;-60
2021/08/01 02:50:35;;;;;;;;;;;;;;;19.44;90.64;98303.28;4996400;28;19920;-60
2021/08/01 02:53:03;;;;;;;;;;;;;;;19.49;87.93;98305.53;4996855;28;20355;-61
2021/08/01 02:55:29;;;;;;;;;;;;;;;19.06;93.21;98307.13;5024664;28;19920;-60
2021/08/01 02:57:54;;;;;;;;;;;;;;;19.31;84.31;98313.03;4996121;28;20322;-61
2021/08/01 03:00:20;;;;;;;;;;;;;;;19.19;90.74;98320.88;4992899;28;19936;-61
2021/08/01 03:02:47;;;;;;;;;;;;;;;19.30;87.87;98314.00;5014190;28;20337;-61
2021/08/01 03:05:12;;;;;;;;;;;;;;;19.02;88.97;98313.50;4995825;28;19921;-61
2021/08/01 03:07:38;;;;;;;;;;;;;;;19.43;91.49;98317.25;4996498;28;20194;-61
2021/08/01 03:10:03;;;;;;;;;;;;;;;19.06;88.72;98314.13;4995565;28;19913;-61
2021/08/01 03:12:29;;;;;;;;;;;;;;;19.28;87.02;98318.50;5013354;28;19921;-59
2021/08/01 03:14:54;;;;;;;;;;;;;;;19.30;90.80;98314.81;5013286;28;20257;-61
2021/08/01 03:17:19;;;;;;;;;;;;;;;19.07;87.61;98319.22;5016324;28;19924;-60
2021/08/01 03:19:45;;;;;;;;;;;;;;;19.09;91.36;98314.72;5014044;28;20380;-60
2021/08/01 03:22:10;;;;;;;;;;;;;;;19.18;92.38;98324.44;5014898;28;19920;-60
2021/08/01 03:24:35;;;;;;;;;;;;;;;19.28;93.65;98323.72;5018234;28;19921;-60
2021/08/01 03:27:01;;;;;;;;;;;;;;;19.16;81.81;98321.13;5013423;28;19917;-60
2021/08/01 03:29:26;;;;;;;;;;;;;;;19.21;85.21;98321.59;5021403;28;19956;-60
2021/08/01 03:31:51;;;;;;;;;;;;;;;19.26;91.77;98315.19;5013100;28;19914;-61
2021/08/01 03:34:17;;;;;;;;;;;;;;;19.17;88.08;98320.16;5013631;28;20384;-60
2021/08/01 03:36:42;;;;;;;;;;;;;;;19.34;88.34;98318.00;4995965;28;20482;-60
2021/08/01 03:39:07;;;;;;;;;;;;;;;19.34;90.31;98312.78;5012741;28;19914;-60
2021/08/01 03:41:32;;;;;;;;;;;;;;;19.30;86.75;98309.59;5013355;28;19917;-60
2021/08/01 03:43:58;;;;;;;;;;;;;;;19.30;90.90;98311.38;4995173;28;19960;-60
2021/08/01 03:46:23;;;;;;;;;;;;;;;19.21;94.47;98308.53;5014957;28;19960;-60
2021/08/01 03:48:48;;;;;;;;;;;;;;;19.07;85.65;98311.41;5014300;28;20063;-60
2021/08/01 03:51:14;;;;;;;;;;;;;;;19.01;80.00;98310.09;5012838;28;19965;-60
2021/08/01 03:53:39;;;;;;;;;;;;;;;19.18;88.30;98308.78;5012783;28;20489;-60
2021/08/01 03:56:05;;;;;;;;;;;;;;;19.03;84.40;98309.97;4991255;28;20326;-60
2021/08/01 03:58:30;;;;;;;;;;;;;;;19.14;95.58;98317.78;5012389;28;19913;-60
2021/08/01 04:00:55;;;;;;;;;;;;;;;18.98;84.01;98317.34;5012242;28;20295;-60
2021/08/01 04:03:21;;;;;;;;;;;;;;;19.19;87.04;98315.66;4999779;28;19917;-61
2021/08/01 04:05:46;;;;;;;;;;;;;;;19.28;94.91;98318.50;5014159;28;20441;-61
2021/08/01 04:08:14;;;;;;;;;;;;;;;19.20;83.56;98317.31;5012675;28;19925;-60
2021/08/01 04:10:39;;;;;;;;;;;;;;;19.08;79.36;98313.03;5012730;28;19914;-60
2021/08/01 04:13:05;;;;;;;;;;;;;;;19.20;92.32;98316.47;5012541;28;19971;-60
2021/08/01 04:15:30;;;;;;;;;;;;;;;19.11;94.55;98320.66;5012346;28;19914;-60
2021/08/01 04:17:55;;;;;;;;;;;;;;;19.35;93.86;98324.91;4998054;28;19913;-60
2021/08/01 04:20:21;;;;;;;;;;;;;;;19.11;90.25;98322.41;4994814;28;19917;-61
2021/08/01 04:22:53;;;;;;;;;;;;;;;19.23;100.00;98327.53;4994748;28;19914;-61
2021/08/01 04:25:18;;;;;;;;;;;;;;;18.96;92.72;98329.66;4996687;28;19917;-60
2021/08/01 04:27:43;;;;;;;;;;;;;;;18.68;95.39;98336.13;4998754;28;19936;-60
2021/08/01 04:30:09;;;;;;;;;;;;;;;18.55;96.41;98328.41;5015512;28;19963;-59
2021/08/01 04:32:34;;;;;;;;;;;;;;;18.98;88.20;98336.44;5012318;28;19921;-60
2021/08/01 04:35:00;;;;;;;;;;;;;;;19.16;85.96;98331.56;5016297;28;20485;-60
2021/08/01 04:37:26;;;;;;;;;;;;;;;18.98;89.41;98333.00;5012633;28;19925;-60
2021/08/01 04:39:52;;;;;;;;;;;;;;;19.04;90.38;98327.28;5012194;28;19920;-60
2021/08/01 04:42:17;;;;;;;;;;;;;;;19.04;89.76;98329.06;4994316;28;20322;-60
2021/08/01 04:44:42;;;;;;;;;;;;;;;19.04;98.28;98321.22;5012192;28;19921;-60
2021/08/01 04:47:08;;;;;;;;;;;;;;;19.31;89.76;98328.69;5012829;28;20276;-60
2021/08/01 04:49:33;;;;;;;;;;;;;;;19.06;90.99;98329.78;4994268;28;19914;-61
2021/08/01 04:51:58;;;;;;;;;;;;;;;19.16;92.32;98321.13;5013829;28;19921;-60
2021/08/01 04:54:24;;;;;;;;;;;;;;;19.05;100.00;98341.19;5014930;28;19914;-60
2021/08/01 04:56:49;;;;;;;;;;;;;;;19.20;96.61;98343.44;5011897;28;19914;-60
2021/08/01 04:59:14;;;;;;;;;;;;;;;19.21;90.92;98345.06;5012018;28;20247;-60
2021/08/01 05:01:40;;;;;;;;;;;;;;;19.31;96.85;98349.56;5017764;28;19949;-59
2021/08/01 05:04:05;;;;;;;;;;;;;;;19.15;94.34;98349.94;4995459;28;19914;-60
2021/08/01 05:06:30;;;;;;;;;;;;;;;19.04;95.02;98342.94;5011914;28;19913;-60
2021/08/01 05:08:56;;;;;;;;;;;;;;;19.13;91.49;98341.41;5011364;28;19927;-60
2021/08/01 05:11:21;;;;;;;;;;;;;;;19.19;100.00;98336.53;5014801;28;20299;-61
2021/08/01 05:13:46;;;;;;;;;;;;;;;19.23;100.00;98343.19;5011523;28;20016;-60
2021/08/01 05:16:15;;;;;;;;;;;;;;;19.43;90.64;98343.38;5012325;28;19928;-60
2021/08/01 05:18:41;;;;;;;;;;;;;;;19.55;89.01;98339.81;5011078;28;19952;-60
2021/08/01 05:21:06;;;;;;;;;;;;;;;19.42;90.16;98337.34;4993730;28;19984;-59
2021/08/01 05:23:31;;;;;;;;;;;;;;;19.31;100.00;98349.56;5011769;28;19913;-61
2021/08/01 05:25:57;;;;;;;;;;;;;;;19.61;97.93;98341.09;5006524;28;19918;-60
2021/08/01 05:28:22;;;;;;;;;;;;;;;19.41;100.00;98342.69;5006021;28;20294;-60
2021/08/01 05:30:48;;;;;;;;;;;;;;;19.22;100.00;98341.50;5011468;28;19914;-61
2021/08/01 05:33:13;;;;;;;;;;;;;;;18.83;100.00;98340.22;5020832;28;20416;-60
2021/08/01 05:35:38;;;;;;;;;;;;;;;19.09;100.00;98330.38;5011290;28;19913;-60
2021/08/01 05:38:04;;;;;;;;;;;;;;;19.58;94.16;98330.91;5011412;28;19933;-61
2021/08/01 05:40:29;;;;;;;;;;;;;;;19.55;88.51;98326.75;5011041;28;20000;-59
2021/08/01 05:42:56;;;;;;;;;;;;;;;19.57;96.24;98332.69;5012114;28;19918;-61
2021/08/01 05:45:21;;;;;;;;;;;;;;;19.40;100.00;98338.41;5017304;28;19917;-61
2021/08/01 05:47:46;;;;;;;;;;;;;;;19.54;100.00;98329.47;5010790;28;20330;-61
2021/08/01 05:50:11;;;;;;;;;;;;;;;19.62;91.25;98327.91;5011455;28;20209;-61
2021/08/01 05:52:37;;;;;;;;;;;;;;;19.58;99.89;98329.09;4992834;28;19917;-61
2021/08/01 05:55:02;;;;;;;;;;;;;;;19.69;91.96;98322.25;5014371;28;20413;-61
2021/08/01 05:57:28;;;;;;;;;;;;;;;20.09;82.56;98325.03;4992974;28;19913;-61
2021/08/01 05:59:53;;;;;;;;;;;;;;;20.21;97.45;98325.84;5015145;28;19971;-61
2021/08/01 06:02:18;;;;;;;;;;;;;;;19.86;95.67;98329.53;5011079;28;19967;-61
2021/08/01 06:04:44;;;;;;;;;;;;;;;19.92;100.00;98320.38;5016082;28;20395;-61
2021/08/01 06:07:09;;;;;;;;;;;;;;;19.77;100.00;98314.59;5011130;28;19945;-61
2021/08/01 06:09:37;;;;;;;;;;;;;;;19.96;95.55;98313.97;5010755;28;19921;-61
2021/08/01 06:12:02;;;;;;;;;;;;;;;20.27;95.67;98317.47;5010489;28;19921;-61
2021/08/01 06:14:28;;;;;;;;;;;;;;;20.24;100.00;98317.75;5010918;28;19917;-61
2021/08/01 06:16:54;;;;;;;;;;;;;;;19.67;100.00;98317.09;5011741;28;19918;-61
2021/08/01 06:19:19;;;;;;;;;;;;;;;19.70;100.00;98318.66;5011699;28;20287;-60
2021/08/01 06:21:44;;;;;;;;;;;;;;;19.85;98.75;98309.59;5015068;28;19964;-61
2021/08/01 06:24:09;;;;;;;;;;;;;;;19.80;100.00;98314.38;5014347;28;20298;-61
2021/08/01 06:26:35;;;;;;;;;;;;;;;19.39;100.00;98318.47;5014596;28;20267;-61
2021/08/01 06:29:00;;;;;;;;;;;;;;;19.60;100.00;98319.38;5016461;28;19914;-62
2021/08/01 06:31:30;;;;;;;;;;;;;;;20.20;100.00;98316.31;4996699;28;20286;-60
2021/08/01 06:33:58;;;;;;;;;;;;;;;20.17;100.00;98313.97;5016443;28;19952;-61
2021/08/01 06:36:29;;;;;;;;;;;;;;;20.68;92.72;98316.66;5014767;28;19918;-61
2021/08/01 06:38:57;;;;;;;;;;;;;;;19.42;100.00;98326.06;5020551;28;19959;-61
2021/08/01 06:41:23;;;;;;;;;;;;;;;19.95;100.00;98325.34;5013759;28;19924;-61
2021/08/01 06:43:51;;;;;;;;;;;;;;;20.55;100.00;98318.63;5014948;28;19917;-61
2021/08/01 06:46:16;;;;;;;;;;;;;;;19.71;100.00;98326.38;5014665;28;20040;-61
2021/08/01 06:48:41;;;;;;;;;;;;;;;19.79;100.00;98323.97;5015909;28;19957;-61
2021/08/01 06:51:07;;;;;;;;;;;;;;;20.26;100.00;98327.09;5014634;28;20298;-61
2021/08/01 06:53:32;;;;;;;;;;;;;;;21.19;100.00;98320.19;5017754;28;19917;-61
2021/08/01 06:55:57;;;;;;;;;;;;;;;21.66;97.23;98323.06;5014523;28;20364;-61
2021/08/01 06:58:25;;;;;;;;;;;;;;;21.10;100.00;98321.00;5013897;28;19913;-61
2021/08/01 07:00:52;;;;;;;;;;;;;;;21.01;100.00;98321.78;4996938;28;20029;-61
2021/08/01 07:03:17;;;;;;;;;;;;;;;20.22;100.00;98315.25;5013282;28;19925;-62
2021/08/01 07:05:46;;;;;;;;;;;;;;;21.12;100.00;98319.06;5017153;28;19921;-61
2021/08/01 07:08:17;;;;;;;;;;;;;;;21.10;94.83;98321.00;4996400;28;19913;-61
2021/08/01 07:10:42;;;;;;;;;;;;;;;21.14;96.16;98314.50;5013402;28;19917;-61
2021/08/01 07:13:08;;;;;;;;;;;;;;;21.45;93.57;98320.56;5013628;28;20618;-61
2021/08/01 07:15:43;;;;;;;;;;;;;;;20.95;100.00;98317.06;5026112;28;20011;-61
2021/08/01 07:18:08;;;;;;;;;;;;;;;19.95;100.00;98328.78;5014196;28;19914;-61
2021/08/01 07:20:33;;;;;;;;;;;;;;;19.99;100.00;98327.59;5015741;28;19920;-61
2021/08/01 07:22:59;;;;;;;;;;;;;;;20.50;100.00;98323.41;5015423;28;19957;-61
2021/08/01 07:25:24;;;;;;;;;;;;;;;20.47;100.00;98334.94;4996863;28;20382;-62
2021/08/01 07:27:50;;;;;;;;;;;;;;;20.55;100.00;98330.84;5017640;28;19913;-61
2021/08/01 07:30:16;;;;;;;;;;;;;;;20.60;100.00;98329.56;4995908;28;20457;-62
2021/08/01 07:32:41;;;;;;;;;;;;;;;20.69;100.00;98322.72;5013261;28;19917;-62
2021/08/01 07:35:07;;;;;;;;;;;;;;;19.76;100.00;98333.84;4996160;28;19972;-61
2021/08/01 07:37:32;;;;;;;;;;;;;;;20.47;99.53;98329.72;5015059;28;19928;-61
2021/08/01 07:40:06;;;;;;;;;;;;;;;20.24;100.00;98334.25;5014438;28;19920;-61
2021/08/01 07:42:31;;;;;;;;;;;;;;;20.93;99.19;98329.44;4995640;28;19925;-61
2021/08/01 07:45:02;;;;;;;;;;;;;;;22.29;96.62;98320.06;5012920;28;19979;-62
2021/08/01 07:47:30;;;;;;;;;;;;;;;21.28;99.17;98324.63;5007069;28;19924;-62
2021/08/01 07:49:56;;;;;;;;;;;;;;;20.76;100.00;98329.09;5002595;28;19928;-62
2021/08/01 07:52:21;;;;;;;;;;;;;;;21.74;97.03;98327.66;5003485;28;20338;-62
2021/08/01 07:54:47;;;;;;;;;;;;;;;22.04;91.79;98325.88;4981187;28;19917;-62
2021/08/01 07:57:29;;;;;;;;;;;;;;;22.62;90.37;98324.97;5002230;28;19932;-62
2021/08/01 07:59:54;;;;;;;;;;;;;;;22.43;87.86;98326.69;4984200;28;19921;-62
2021/08/01 08:02:20;;;;;;;;;;;;;;;21.87;88.68;98322.13;5002250;28;19921;-62
2021/08/01 08:04:45;;;;;;;;;;;;;;;22.43;84.33;98321.44;4984581;28;20366;-62
2021/08/01 08:07:10;;;;;;;;;;;;;;;21.49;91.41;98331.59;5001717;28;19917;-62
2021/08/01 08:09:36;;;;;;;;;;;;;;;21.44;90.01;98328.53;4985388;28;19921;-62
2021/08/01 08:12:01;;;;;;;;;;;;;;;22.04;87.18;98321.44;5000144;28;19922;-62
2021/08/01 08:14:26;;;;;;;;;;;;;;;21.01;90.76;98321.78;5002182;28;20015;-62
2021/08/01 08:16:52;;;;;;;;;;;;;;;21.02;92.13;98328.66;5001784;28;19942;-62
2021/08/01 08:19:17;;;;;;;;;;;;;;;21.48;91.24;98322.94;5000816;28;19960;-62
2021/08/01 08:21:42;;;;;;;;;;;;;;;21.50;88.66;98322.78;5001607;28;19925;-62
2021/08/01 08:24:08;;;;;;;;;;;;;;;21.16;94.28;98330.91;5002052;28;19917;-62
2021/08/01 08:26:42;;;;;;;;;;;;;;;20.43;98.52;98324.88;5002395;28;19991;-61
2021/08/01 08:29:07;;;;;;;;;;;;;;;21.06;100.00;98316.97;4999521;28;19917;-61
2021/08/01 08:31:33;;;;;;;;;;;;;;;22.74;88.91;98316.00;5003421;28;20507;-62
2021/08/01 08:33:58;;;;;;;;;;;;;;;22.28;87.45;98317.59;5000567;28;19922;-62
2021/08/01 08:36:23;;;;;;;;;;;;;;;22.60;84.43;98321.66;5000984;28;19983;-62
2021/08/01 08:38:49;;;;;;;;;;;;;;;22.51;84.86;98318.94;5002744;28;19961;-62
2021/08/01 08:41:17;;;;;;;;;;;;;;;21.95;85.17;98322.28;4981199;28;19932;-62
2021/08/01 08:43:43;;;;;;;;;;;;;;;23.58;73.90;98317.66;4973495;28;19917;-62
2021/08/01 08:46:09;;;;;;;;;;;;;;;23.45;75.54;98322.47;4982858;28;19970;-62
2021/08/01 08:48:34;;;;;;;;;;;;;;;24.18;66.37;98310.03;4999694;28;19936;-64
2021/08/01 08:51:00;;;;;;;;;;;;;;;23.47;72.86;98309.97;5000640;28;20326;-61
2021/08/01 08:53:26;;;;;;;;;;;;;;;23.74;72.96;98304.75;4983059;28;20056;-62
2021/08/01 08:55:52;;;;;;;;;;;;;;;23.92;71.46;98306.53;5000464;28;19921;-62
2021/08/01 08:58:21;;;;;;;;;;;;;;;23.99;72.70;98310.19;4999528;28;19971;-62
2021/08/01 09:00:46;;;;;;;;;;;;;;;23.51;73.40;98316.59;4999368;28;20347;-62
2021/08/01 09:03:11;;;;;;;;;;;;;;;22.71;77.77;98324.13;4979789;28;19918;-62
2021/08/01 09:05:37;;;;;;;;;;;;;;;22.33;77.06;98321.47;4998906;28;19929;-62
2021/08/01 09:08:02;;;;;;;;;;;;;;;21.60;82.21;98333.25;4981963;28;19925;-62
2021/08/01 09:10:30;;;;;;;;;;;;;;;21.91;78.62;98320.88;4982753;28;19928;-62
2021/08/01 09:12:55;;;;;;;;;;;;;;;22.59;73.38;98326.09;4975227;28;20429;-62
2021/08/01 09:15:23;;;;;;;;;;;;;;;20.18;83.99;98331.31;4964205;28;19964;-62
2021/08/01 09:17:48;;;;;;;;;;;;;;;20.72;83.31;98335.53;4980629;28;20383;-62
2021/08/01 09:20:14;;;;;;;;;;;;;;;23.24;73.38;98331.44;4979630;28;19929;-61
2021/08/01 09:22:41;;;;;;;;;;;;;;;23.07;72.31;98329.56;4972050;28;20003;-62
2021/08/01 09:25:20;;;;;;;;;;;;;;;23.83;72.65;98320.56;4941571;28;19930;-61
2021/08/01 09:27:46;;;;;;;;;;;;;;;24.11;66.83;98324.78;4976598;28;20443;-62
2021/08/01 09:30:11;;;;;;;;;;;;;;;24.63;61.84;98324.88;4977497;28;19964;-62
2021/08/01 09:32:49;;;;;;;;;;;;;;;25.95;61.65;98317.47;4977426;28;19929;-62
2021/08/01 09:35:15;;;;;;;;;;;;;;;24.75;67.58;98325.44;4977767;28;19921;-62
2021/08/01 09:37:41;;;;;;;;;;;;;;;25.26;57.63;98325.53;4977068;28;19963;-62
2021/08/01 09:40:09;;;;;;;;;;;;;;;23.75;64.28;98330.03;4970324;28;19921;-62
2021/08/01 09:42:45;;;;;;;;;;;;;;;24.17;61.93;98329.41;4976230;28;19944;-62
2021/08/01 09:45:17;;;;;;;;;;;;;;;25.43;57.52;98324.59;4959932;28;19925;-62
2021/08/01 09:47:46;;;;;;;;;;;;;;;26.36;56.17;98322.75;4959816;28;20016;-62
2021/08/01 09:50:12;;;;;;;;;;;;;;;25.04;51.46;98326.88;4977455;28;20612;-62
2021/08/01 09:52:37;;;;;;;;;;;;;;;26.61;54.94;98327.03;4976906;28;19928;-62
2021/08/01 09:55:03;;;;;;;;;;;;;;;27.97;51.53;98325.97;4977894;28;19944;-62
2021/08/01 09:57:28;;;;;;;;;;;;;;;27.44;51.91;98323.16;4978588;28;20514;-61
2021/08/01 10:00:07;;;;;;;;;;;;;;;27.59;49.17;98325.03;4979385;28;19964;-62
2021/08/01 10:02:39;;;;;;;;;;;;;;;26.82;47.84;98325.66;4980576;28;19921;-62
2021/08/01 10:05:14;;;;;;;;;;;;;;;26.76;50.66;98313.16;4978774;28;20368;-62
2021/08/01 10:07:41;;;;;;;;;;;;;;;27.17;49.01;98321.75;4979439;28;19928;-62
2021/08/01 10:10:14;;;;;;;;;;;;;;;25.44;51.66;98320.97;4979640;28;19918;-62
2021/08/01 10:12:43;;;;;;;;;;;;;;;24.07;59.36;98323.44;4984000;28;19929;-62
2021/08/01 10:15:08;;;;;;;;;;;;;;;23.76;61.49;98323.78;4998193;28;20019;-62
2021/08/01 10:17:34;;;;;;;;;;;;;;;22.42;63.89;98319.78;4981630;28;20619;-62
2021/08/01 10:19:59;;;;;;;;;;;;;;;22.14;65.81;98322.25;4998443;28;19980;-62
2021/08/01 10:22:25;;;;;;;;;;;;;;;24.62;58.80;98311.84;4981358;28;20006;-62
2021/08/01 10:24:54;;;;;;;;;;;;;;;25.61;57.97;98310.47;4995071;28;19921;-62
2021/08/01 10:27:19;;;;;;;;;;;;;;;25.34;52.00;98306.28;4999624;28;19917;-62
2021/08/01 10:29:45;;;;;;;;;;;;;;;24.95;56.37;98307.59;4980996;28;20383;-62
2021/08/01 10:32:10;;;;;;;;;;;;;;;25.22;62.94;98301.28;4998009;28;19918;-62
2021/08/01 10:34:53;;;;;;;;;;;;;;;27.37;49.07;98308.13;4981301;28;19924;-61
2021/08/01 10:37:20;;;;;;;;;;;;;;;25.88;50.98;98309.38;4981838;28;19917;-62
2021/08/01 10:39:45;;;;;;;;;;;;;;;25.56;50.33;98307.50;4950964;28;19917;-62
2021/08/01 10:42:11;;;;;;;;;;;;;;;27.21;46.42;98301.09;4995529;28;19917;-61
2021/08/01 10:44:39;;;;;;;;;;;;;;;26.87;50.13;98304.84;4998853;28;20330;-62
2021/08/01 10:47:08;;;;;;;;;;;;;;;28.15;45.54;98293.91;5000101;28;19921;-62
2021/08/01 10:49:40;;;;;;;;;;;;;;;27.84;47.77;98292.16;4999412;28;20008;-61
2021/08/01 10:52:07;;;;;;;;;;;;;;;26.08;51.97;98292.22;4981716;28;20756;-62
2021/08/01 10:54:32;;;;;;;;;;;;;;;22.86;57.23;98296.44;4999085;28;20847;-62
2021/08/01 10:57:16;;;;;;;;;;;;;;;24.15;58.48;98289.31;4996796;28;19918;-62
2021/08/01 10:59:45;;;;;;;;;;;;;;;23.74;52.38;98294.22;4995318;28;19921;-62
2021/08/01 11:02:10;;;;;;;;;;;;;;;23.83;54.23;98291.66;4982995;28;19918;-62
2021/08/01 11:04:37;;;;;;;;;;;;;;;24.94;53.97;98289.31;4999585;28;20647;-61
2021/08/01 11:07:02;;;;;;;;;;;;;;;25.05;53.43;98286.38;5000914;28;20370;-62
2021/08/01 11:09:28;;;;;;;;;;;;;;;24.10;55.51;98288.91;5002219;28;19957;-61
2021/08/01 11:12:12;;;;;;;;;;;;;;;24.33;55.75;98281.34;4984881;28;19927;-63
2021/08/01 11:14:47;;;;;;;;;;;;;;;22.97;61.79;98298.91;4983813;28;19933;-61
2021/08/01 11:17:12;;;;;;;;;;;;;;;22.05;66.64;98291.63;4982416;28;19926;-62
2021/08/01 11:19:37;;;;;;;;;;;;;;;23.10;63.25;98295.13;4983971;28;19922;-62
2021/08/01 11:22:03;;;;;;;;;;;;;;;22.92;67.35;98295.88;4985120;28;19918;-62
2021/08/01 11:24:28;;;;;;;;;;;;;;;22.22;68.58;98294.56;4984748;28;19918;-62
2021/08/01 11:27:03;;;;;;;;;;;;;;;22.65;68.01;98298.44;4982354;28;20009;-62
2021/08/01 11:29:28;;;;;;;;;;;;;;;23.56;65.65;98298.59;4984212;28;19971;-61
2021/08/01 11:32:07;;;;;;;;;;;;;;;22.36;64.93;98301.97;4977871;28;19922;-60
2021/08/01 11:34:32;;;;;;;;;;;;;;;22.17;67.91;98294.09;4983013;28;20016;-62
2021/08/01 11:37:17;;;;;;;;;;;;;;;21.98;71.88;98303.63;4979231;28;20479;-62
2021/08/01 11:39:52;;;;;;;;;;;;;;;22.39;70.22;98299.06;4982758;28;20686;-62
2021/08/01 11:42:24;;;;;;;;;;;;;;;22.26;69.52;98303.78;4984793;28;19924;-62
2021/08/01 11:44:57;;;;;;;;;;;;;;;23.24;66.59;98305.16;4984945;28;19921;-61
2021/08/01 11:47:24;;;;;;;;;;;;;;;21.70;68.10;98311.34;4985746;28;19918;-62
2021/08/01 11:49:49;;;;;;;;;;;;;;;21.80;64.55;98307.91;4984055;28;19922;-62
2021/08/01 11:52:42;;;;;;;;;;;;;;;23.77;55.93;98301.78;4985489;28;19941;-62
2021/08/01 11:55:07;;;;;;;;;;;;;;;23.08;58.10;98307.56;4966622;28;19918;-62
2021/08/01 11:57:33;;;;;;;;;;;;;;;24.84;54.55;98294.69;4983256;28;20410;-62
2021/08/01 11:59:58;;;;;;;;;;;;;;;25.40;57.70;98290.63;4984580;28;19917;-62
2021/08/01 12:02:24;;;;;;;;;;;;;;;25.40;54.22;98295.91;4983744;28;19922;-61
2021/08/01 12:05:07;;;;;;;;;;;;;;;23.26;59.15;98300.56;4983331;28;20465;-62
2021/08/01 12:07:40;;;;;;;;;;;;;;;25.39;58.70;98299.53;4971741;28;20643;-63
2021/08/01 12:10:32;;;;;;;;;;;;;;;24.63;50.41;98298.53;4982648;28;19957;-62
2021/08/01 12:12:59;;;;;;;;;;;;;;;25.95;47.10;98291.09;4988357;28;19953;-63
2021/08/01 12:15:26;;;;;;;;;;;;;;;25.92;46.82;98294.06;5001656;28;19917;-62
2021/08/01 12:17:51;;;;;;;;;;;;;;;24.42;50.49;98295.41;4950520;28;20616;-62
2021/08/01 12:20:17;;;;;;;;;;;;;;;24.13;51.53;98295.66;4983515;28;19925;-62
2021/08/01 12:22:46;;;;;;;;;;;;;;;25.44;52.12;98284.06;5000974;28;20733;-61
2021/08/01 12:25:12;;;;;;;;;;;;;;;24.07;54.40;98291.88;5000830;28;19960;-61
2021/08/01 12:27:37;;;;;;;;;;;;;;;22.62;57.72;98293.50;5001681;28;19988;-63
2021/08/01 12:30:05;;;;;;;;;;;;;;;24.59;56.65;98293.75;5001719;28;20444;-61
2021/08/01 12:32:43;;;;;;;;;;;;;;;23.02;53.27;98295.03;5002548;28;19917;-61
2021/08/01 12:35:09;;;;;;;;;;;;;;;23.78;50.81;98282.41;4999213;28;19917;-61
2021/08/01 12:37:43;;;;;;;;;;;;;;;23.67;51.49;98290.47;5002076;28;19921;-62
2021/08/01 12:40:09;;;;;;;;;;;;;;;23.88;54.15;98295.50;5001816;28;20485;-60
2021/08/01 12:42:34;;;;;;;;;;;;;;;25.40;47.50;98282.72;5003922;28;19928;-61
2021/08/01 12:45:01;;;;;;;;;;;;;;;23.76;47.62;98289.59;5002508;28;20413;-61